메인 페이지
METAR-TAF:

METAR-TAF

공항 :

위니펙, 매니토바, 캐나다

위도: 49-54N, 경도: 097-14W, 고도: 239m

현재 날씨관측

예보는 26분 전, 07:00시(UTC)에 발표되었습니다.
북동6kt
온도 7°C
습도 57%
기압 1013 hPa
시정: 24.1km
고도 9500ft 상공 구름 조금
고도 18000ft 상공 구름 많음

METAR: CYWG 210700Z 04006KT 15SM FEW095 BKN180 07/M01 A2990 RMK AC1AC6 SLP132

시각: 02:26 (07:26 UTC)

예보

예보는 1 시간 46분 전, 05:40시(UTC)에 발표되었습니다.
예보 대상 시간: 21일 06시부터 22일 06시까지 (UTC)
북동5kt
시정: 10km
고도 10000ft 상공 구름 조금
고도 22000ft 상공 구름 많음
21일 1700시부터 (UTC)
5kt
시정: 10km
고도 7000ft 상공 구름 보통
고도 21000ft 상공 구름 많음
21일 2300시부터 (UTC)
여러 방향의 바람 3kt
시정: 10km
고도 9000ft 상공 구름 많음

TAF: CYWG 210540Z 2106/2206 05005KT P6SM FEW100 BKN220 FM211700 10005KT P6SM SCT070 BKN210 FM212300 VRB03KT P6SM BKN090 RMK NXT FCST BY 211200Z

4,000개 이상의 공항 관측 자료 및 예보 (METAR 및 TAF 보고).

지도상에서 검색 가능한 기상관측소가 노란 점과 빨간 점으로 표시되어 있습니다.

기상관측소 명을 보려면 표시 위로 마우스를 이동하세요.

날씨 관측과 예보를 보려면 클릭하세요.

지도 변경 : 확대하려면 엑스 표시가 있는 녹색 버튼, 축소하려면 빼기 표시가 있는 녹색 버튼, 다음 페이지의 지도를 보려면 녹색 화살표를 클릭하세요.


METAR-TAF: